createdAt,value
2019-05-19T00:00:09.424Z,15.20
2019-05-19T00:02:40.873Z,15.20
2019-05-19T00:05:09.567Z,15.20
2019-05-19T00:07:38.675Z,15.20
2019-05-19T00:10:08.643Z,15.30
2019-05-19T00:12:38.024Z,15.20
2019-05-19T00:15:07.427Z,15.20
2019-05-19T00:17:36.484Z,15.10
2019-05-19T00:22:40.513Z,15.10
2019-05-19T00:25:09.625Z,15.10
2019-05-19T00:27:38.783Z,15.10
2019-05-19T00:30:08.062Z,15.10
2019-05-19T00:32:37.176Z,15.10
2019-05-19T00:35:06.300Z,15.00
2019-05-19T00:37:36.602Z,15.00
2019-05-19T00:40:07.057Z,15.00
2019-05-19T00:42:36.164Z,15.00
2019-05-19T00:45:06.308Z,15.00
2019-05-19T00:47:35.386Z,14.90
2019-05-19T00:50:04.856Z,14.90
2019-05-19T00:52:33.900Z,14.90
2019-05-19T00:55:03.001Z,14.90
2019-05-19T00:57:32.860Z,14.90
2019-05-19T01:00:02.201Z,14.90
2019-05-19T01:02:31.301Z,14.80
2019-05-19T01:05:02.384Z,14.80
2019-05-19T01:07:31.508Z,14.80
2019-05-19T01:10:16.605Z,14.70
2019-05-19T01:12:45.709Z,14.70
2019-05-19T01:15:14.933Z,14.50
2019-05-19T01:17:43.923Z,14.60
2019-05-19T01:20:14.706Z,14.60
2019-05-19T01:22:43.815Z,14.60
2019-05-19T01:25:13.438Z,14.60
2019-05-19T01:27:42.886Z,14.60
2019-05-19T01:30:14.259Z,14.50
2019-05-19T01:32:43.328Z,14.50
2019-05-19T01:35:12.377Z,14.40
2019-05-19T01:37:44.652Z,14.30
2019-05-19T01:40:14.045Z,14.30
2019-05-19T01:42:43.187Z,14.30
2019-05-19T01:45:12.668Z,14.30
2019-05-19T01:47:41.837Z,14.30
2019-05-19T01:50:17.966Z,14.30
2019-05-19T01:52:43.073Z,14.20
2019-05-19T01:55:13.507Z,14.20
2019-05-19T01:57:42.802Z,14.20
2019-05-19T02:00:12.681Z,14.20
2019-05-19T02:02:42.944Z,14.10
2019-05-19T02:05:12.020Z,14.10
2019-05-19T02:07:41.533Z,14.10
2019-05-19T02:10:11.068Z,14.10
2019-05-19T02:12:40.159Z,14.10
2019-05-19T02:15:10.390Z,14.00
2019-05-19T02:17:39.715Z,13.90
2019-05-19T02:20:09.597Z,13.90
2019-05-19T02:22:38.797Z,13.90
2019-05-19T02:25:08.457Z,14.00
2019-05-19T02:27:37.780Z,13.90
2019-05-19T02:30:07.478Z,13.90
2019-05-19T02:32:36.771Z,13.90
2019-05-19T02:35:06.900Z,13.90
2019-05-19T02:37:35.956Z,13.90
2019-05-19T02:40:09.198Z,13.80
2019-05-19T02:42:41.594Z,13.80
2019-05-19T02:45:11.381Z,13.70
2019-05-19T02:47:45.733Z,13.60
2019-05-19T02:50:15.150Z,13.60
2019-05-19T02:52:47.160Z,13.60
2019-05-19T02:55:17.161Z,13.70
2019-05-19T02:57:48.725Z,13.60
2019-05-19T03:00:19.693Z,13.50
2019-05-19T03:02:49.038Z,13.40
2019-05-19T03:05:18.353Z,13.40
2019-05-19T03:07:47.495Z,13.30
2019-05-19T03:10:16.846Z,13.30
2019-05-19T03:12:46.247Z,13.30
2019-05-19T03:17:50.986Z,13.40
2019-05-19T03:20:20.077Z,13.40
2019-05-19T03:22:49.183Z,13.30
2019-05-19T03:25:18.481Z,13.30
2019-05-19T03:27:48.188Z,13.30
2019-05-19T03:30:52.897Z,13.20
2019-05-19T03:33:25.985Z,13.20
2019-05-19T03:35:55.057Z,13.10
2019-05-19T03:38:24.382Z,13.20
2019-05-19T03:40:53.521Z,13.30
2019-05-19T03:43:23.330Z,13.30
2019-05-19T03:48:27.854Z,13.20
2019-05-19T03:50:56.910Z,13.20
2019-05-19T03:53:27.242Z,13.30
2019-05-19T03:55:56.596Z,13.40
2019-05-19T03:58:27.254Z,13.40
2019-05-19T04:00:56.325Z,13.20
2019-05-19T04:03:25.328Z,13.20
2019-05-19T04:05:54.746Z,13.20
2019-05-19T04:08:23.913Z,13.30
2019-05-19T04:10:53.848Z,13.30
2019-05-19T04:13:23.594Z,13.30
2019-05-19T04:15:52.668Z,13.40
2019-05-19T04:18:22.002Z,13.30
2019-05-19T04:20:51.098Z,13.20
2019-05-19T04:23:20.385Z,13.20
2019-05-19T04:25:49.789Z,13.20
2019-05-19T04:28:19.142Z,13.20
2019-05-19T04:30:48.533Z,13.30
2019-05-19T04:33:17.993Z,13.30
2019-05-19T04:35:47.440Z,13.40
2019-05-19T04:38:16.958Z,13.50
2019-05-19T04:40:46.005Z,13.60
2019-05-19T04:43:15.013Z,13.60
2019-05-19T04:45:45.356Z,13.60
2019-05-19T04:48:14.521Z,13.60
2019-05-19T04:50:44.089Z,13.70
2019-05-19T04:53:13.922Z,13.70
2019-05-19T04:55:43.325Z,13.80
2019-05-19T04:58:12.384Z,13.90
2019-05-19T05:00:41.749Z,14.00
2019-05-19T05:03:11.039Z,14.10
2019-05-19T05:05:40.586Z,14.20
2019-05-19T05:08:27.164Z,14.20
2019-05-19T05:10:41.368Z,14.20
2019-05-19T05:13:10.505Z,14.30
2019-05-19T05:15:40.729Z,14.40
2019-05-19T05:18:09.808Z,14.40
2019-05-19T05:20:38.857Z,14.30
2019-05-19T05:23:07.932Z,14.30
2019-05-19T05:25:37.704Z,14.40
2019-05-19T05:28:07.017Z,14.40
2019-05-19T05:30:36.085Z,14.50
2019-05-19T05:33:05.516Z,14.70
2019-05-19T05:35:34.632Z,14.80
2019-05-19T05:38:03.729Z,14.80
2019-05-19T05:40:32.833Z,14.90
2019-05-19T05:43:02.148Z,15.10
2019-05-19T05:45:31.329Z,15.20
2019-05-19T05:48:00.580Z,15.30
2019-05-19T05:50:29.720Z,15.40
2019-05-19T05:52:58.816Z,15.60
2019-05-19T05:55:28.245Z,15.80
2019-05-19T05:57:57.392Z,16.10
2019-05-19T06:00:27.477Z,16.60
2019-05-19T06:02:56.541Z,17.30
2019-05-19T06:05:25.991Z,17.80
2019-05-19T06:07:58.468Z,18.40
2019-05-19T06:10:27.825Z,19.10
2019-05-19T06:13:13.467Z,18.90
2019-05-19T06:15:42.550Z,19.20
2019-05-19T06:18:11.901Z,19.60
2019-05-19T06:20:43.220Z,19.70
2019-05-19T06:23:12.273Z,19.70
2019-05-19T06:28:16.160Z,19.30
2019-05-19T06:30:45.752Z,19.70
2019-05-19T06:33:14.857Z,20.10
2019-05-19T06:35:43.899Z,20.10
2019-05-19T06:38:13.067Z,19.80
2019-05-19T06:40:42.158Z,19.70
2019-05-19T06:43:11.304Z,19.60
2019-05-19T06:45:41.097Z,19.10
2019-05-19T06:48:10.331Z,19.00
2019-05-19T06:50:40.732Z,19.00
2019-05-19T06:53:14.209Z,19.20
2019-05-19T06:55:41.084Z,19.20
2019-05-19T06:58:10.435Z,19.30
2019-05-19T07:00:39.796Z,19.40
2019-05-19T07:03:09.168Z,19.60
2019-05-19T07:05:38.242Z,19.20
2019-05-19T07:08:07.956Z,18.60
2019-05-19T07:10:37.304Z,18.40
2019-05-19T07:13:06.636Z,18.40
2019-05-19T07:15:36.329Z,18.60
2019-05-19T07:18:05.445Z,18.80
2019-05-19T07:20:34.576Z,19.00
2019-05-19T07:23:03.682Z,19.10
2019-05-19T07:25:32.812Z,19.00
2019-05-19T07:28:02.122Z,18.80
2019-05-19T07:30:31.448Z,18.70
2019-05-19T07:33:00.779Z,18.70
2019-05-19T07:35:30.091Z,18.70
2019-05-19T07:37:59.230Z,18.80
2019-05-19T07:40:28.720Z,18.80
2019-05-19T07:42:57.821Z,18.90
2019-05-19T07:45:28.856Z,19.20
2019-05-19T07:48:01.000Z,19.60
2019-05-19T07:50:30.328Z,19.80
2019-05-19T07:52:59.455Z,19.80
2019-05-19T07:55:30.044Z,19.70
2019-05-19T07:58:02.105Z,19.80
2019-05-19T08:00:35.181Z,19.90
2019-05-19T08:03:04.429Z,19.70
2019-05-19T08:05:34.448Z,19.80
2019-05-19T08:08:03.666Z,20.10
2019-05-19T08:10:32.879Z,20.00
2019-05-19T08:13:02.244Z,20.00
2019-05-19T08:15:31.346Z,20.30
2019-05-19T08:18:00.752Z,20.60
2019-05-19T08:20:29.809Z,20.80
2019-05-19T08:22:58.936Z,21.20
2019-05-19T08:25:28.015Z,21.40
2019-05-19T08:28:07.462Z,21.70
2019-05-19T08:30:27.942Z,22.40
2019-05-19T08:32:56.980Z,22.40
2019-05-19T08:35:26.088Z,22.80
2019-05-19T08:37:55.196Z,22.90
2019-05-19T08:40:24.318Z,22.80
2019-05-19T08:45:27.737Z,23.50
2019-05-19T08:47:56.915Z,23.80
2019-05-19T08:50:26.004Z,23.80
2019-05-19T08:52:55.123Z,23.50
2019-05-19T08:55:24.473Z,23.30
2019-05-19T08:57:53.844Z,23.30
2019-05-19T09:00:23.928Z,23.10
2019-05-19T09:02:52.993Z,23.40
2019-05-19T09:05:22.126Z,23.50
2019-05-19T09:07:51.124Z,23.70
2019-05-19T09:10:22.699Z,23.80
2019-05-19T09:12:52.033Z,24.10
2019-05-19T09:15:21.365Z,24.10
2019-05-19T09:17:50.685Z,23.80
2019-05-19T09:20:19.800Z,23.90
2019-05-19T09:22:48.872Z,24.30
2019-05-19T09:25:18.201Z,24.50
2019-05-19T09:30:22.857Z,24.10
2019-05-19T09:32:52.042Z,24.20
2019-05-19T09:35:21.641Z,23.90
2019-05-19T09:37:50.732Z,24.30
2019-05-19T09:40:20.255Z,24.80
2019-05-19T09:42:49.632Z,25.00
2019-05-19T09:45:19.264Z,25.30
2019-05-19T09:47:50.456Z,25.20
2019-05-19T09:50:20.261Z,25.00
2019-05-19T09:52:49.583Z,25.00
2019-05-19T09:55:18.641Z,24.60
2019-05-19T09:57:47.752Z,24.30
2019-05-19T10:00:17.189Z,24.10
2019-05-19T10:02:46.223Z,24.30
2019-05-19T10:05:15.614Z,24.20
2019-05-19T10:07:46.203Z,24.10
2019-05-19T10:10:17.209Z,23.90
2019-05-19T10:12:46.495Z,24.00
2019-05-19T10:15:15.956Z,24.10
2019-05-19T10:17:46.961Z,24.00
2019-05-19T10:20:16.885Z,23.90
2019-05-19T10:22:46.495Z,23.80
2019-05-19T10:27:51.510Z,23.90
2019-05-19T10:30:20.583Z,23.90
2019-05-19T10:32:51.089Z,23.90
2019-05-19T10:35:20.108Z,23.80
2019-05-19T10:37:49.299Z,23.60
2019-05-19T10:40:18.656Z,23.70
2019-05-19T10:43:03.351Z,23.70
2019-05-19T10:45:33.489Z,23.60
2019-05-19T10:48:02.618Z,23.80
2019-05-19T10:50:31.964Z,23.70
2019-05-19T10:53:01.396Z,23.90
2019-05-19T10:55:36.423Z,23.90
2019-05-19T10:58:01.570Z,23.90
2019-05-19T11:00:30.688Z,23.50
2019-05-19T11:02:59.772Z,23.70
2019-05-19T11:05:29.886Z,23.80
2019-05-19T11:07:59.450Z,24.10
2019-05-19T11:10:28.533Z,24.10
2019-05-19T11:12:58.141Z,23.90
2019-05-19T11:15:28.306Z,23.90
2019-05-19T11:17:57.686Z,24.10
2019-05-19T11:20:26.816Z,24.20
2019-05-19T11:22:55.948Z,24.30
2019-05-19T11:25:33.559Z,24.50
2019-05-19T11:27:55.827Z,24.50
2019-05-19T11:30:24.975Z,24.70
2019-05-19T11:32:54.054Z,24.70
2019-05-19T11:35:23.188Z,24.60
2019-05-19T11:37:52.300Z,24.40
2019-05-19T11:40:21.437Z,24.20
2019-05-19T11:42:50.535Z,24.50
2019-05-19T11:45:19.643Z,24.70
2019-05-19T11:47:49.632Z,24.90
2019-05-19T11:50:18.947Z,24.90
2019-05-19T11:52:48.153Z,25.10
2019-05-19T11:55:17.229Z,25.00
2019-05-19T12:00:22.061Z,24.80
2019-05-19T12:02:51.392Z,24.90
2019-05-19T12:05:21.620Z,24.80
2019-05-19T12:07:50.838Z,24.80
2019-05-19T12:10:19.880Z,24.80
2019-05-19T12:12:49.628Z,25.10
2019-05-19T12:15:19.145Z,25.40
2019-05-19T12:17:48.533Z,25.40
2019-05-19T12:20:21.049Z,25.30
2019-05-19T12:22:50.200Z,25.30
2019-05-19T12:25:19.408Z,25.40
2019-05-19T12:27:48.524Z,25.10
2019-05-19T12:30:20.187Z,25.00
2019-05-19T12:32:49.643Z,25.30
2019-05-19T12:35:18.802Z,25.30
2019-05-19T12:37:48.120Z,25.40
2019-05-19T12:42:52.473Z,25.20
2019-05-19T12:45:21.820Z,25.00
2019-05-19T12:47:51.219Z,24.70
2019-05-19T12:50:20.538Z,24.90
2019-05-19T12:52:49.624Z,24.80
2019-05-19T12:55:20.141Z,24.60
2019-05-19T12:57:49.481Z,24.60
2019-05-19T13:00:19.072Z,24.60
2019-05-19T13:02:48.465Z,24.70
2019-05-19T13:05:17.665Z,24.60
2019-05-19T13:07:47.089Z,24.60
2019-05-19T13:10:16.210Z,24.40
2019-05-19T13:12:45.612Z,24.40
2019-05-19T13:15:15.660Z,24.30
2019-05-19T13:17:44.884Z,24.30
2019-05-19T13:20:14.821Z,24.20
2019-05-19T13:22:44.223Z,24.20
2019-05-19T13:25:13.876Z,24.30
2019-05-19T13:27:43.504Z,24.30
2019-05-19T13:30:12.604Z,24.40
2019-05-19T13:32:41.765Z,24.40
2019-05-19T13:35:11.455Z,24.30
2019-05-19T13:37:40.793Z,24.20
2019-05-19T13:40:10.500Z,24.10
2019-05-19T13:42:39.799Z,24.10
2019-05-19T13:45:09.264Z,23.70
2019-05-19T13:47:47.139Z,23.00
2019-05-19T13:50:16.590Z,22.20
2019-05-19T13:52:46.049Z,21.30
2019-05-19T13:55:15.199Z,21.00
2019-05-19T13:57:44.351Z,20.60
2019-05-19T14:00:15.265Z,20.30
2019-05-19T14:02:44.654Z,20.00
2019-05-19T14:05:14.168Z,19.80
2019-05-19T14:07:43.732Z,19.70
2019-05-19T14:10:13.016Z,19.50
2019-05-19T14:12:42.058Z,19.40
2019-05-19T14:15:12.801Z,19.30
2019-05-19T14:17:41.881Z,19.20
2019-05-19T14:20:11.136Z,19.20
2019-05-19T14:22:40.280Z,19.30
2019-05-19T14:25:09.409Z,19.20
2019-05-19T14:27:38.480Z,19.30
2019-05-19T14:30:08.175Z,19.20
2019-05-19T14:32:38.017Z,19.20
2019-05-19T14:35:07.609Z,19.00
2019-05-19T14:37:36.712Z,19.00
2019-05-19T14:40:06.470Z,18.90
2019-05-19T14:43:06.483Z,19.00
2019-05-19T14:45:35.820Z,19.00
2019-05-19T14:48:04.856Z,19.00
2019-05-19T14:50:34.094Z,19.10
2019-05-19T14:53:03.277Z,19.10
2019-05-19T14:55:33.913Z,19.30
2019-05-19T14:58:03.144Z,19.30
2019-05-19T15:03:07.029Z,19.50
2019-05-19T15:05:36.133Z,19.70
2019-05-19T15:08:06.968Z,19.80
2019-05-19T15:10:36.080Z,19.70
2019-05-19T15:13:05.430Z,19.60
2019-05-19T15:15:34.535Z,19.70
2019-05-19T15:18:04.008Z,19.70
2019-05-19T15:20:33.064Z,19.80
2019-05-19T15:23:16.989Z,19.90
2019-05-19T15:25:46.113Z,20.00
2019-05-19T15:28:16.401Z,20.10
2019-05-19T15:30:45.901Z,20.00
2019-05-19T15:33:15.252Z,20.10
2019-05-19T15:35:44.324Z,20.00
2019-05-19T15:38:13.703Z,20.00
2019-05-19T15:40:42.828Z,19.90
2019-05-19T15:43:12.700Z,19.80
2019-05-19T15:45:42.085Z,19.80
2019-05-19T15:48:30.580Z,19.80
2019-05-19T15:50:59.669Z,19.90
2019-05-19T15:53:28.970Z,19.80
2019-05-19T15:56:00.749Z,19.60
2019-05-19T15:58:30.184Z,19.60
2019-05-19T16:00:59.274Z,19.60
2019-05-19T16:03:28.912Z,19.60
2019-05-19T16:05:58.298Z,19.60
2019-05-19T16:08:27.634Z,19.70
2019-05-19T16:11:01.079Z,19.60
2019-05-19T16:13:30.783Z,19.70
2019-05-19T16:16:00.093Z,19.60
2019-05-19T16:18:29.268Z,19.60
2019-05-19T16:20:58.341Z,19.60
2019-05-19T16:23:29.056Z,19.70
2019-05-19T16:25:58.140Z,19.70
2019-05-19T16:28:30.708Z,19.50
2019-05-19T16:30:58.556Z,19.50
2019-05-19T16:33:28.288Z,19.50
2019-05-19T16:35:57.477Z,19.50
2019-05-19T16:38:26.617Z,19.60
2019-05-19T16:40:55.665Z,19.50
2019-05-19T16:43:24.804Z,19.50
2019-05-19T16:45:54.017Z,19.60
2019-05-19T16:48:23.880Z,19.50
2019-05-19T16:50:52.996Z,19.50
2019-05-19T16:53:22.102Z,19.50
2019-05-19T16:55:51.256Z,19.50
2019-05-19T16:58:21.628Z,19.50
2019-05-19T17:00:50.996Z,19.40
2019-05-19T17:03:20.236Z,19.30
2019-05-19T17:05:49.710Z,19.40
2019-05-19T17:08:20.857Z,19.30
2019-05-19T17:10:50.654Z,19.30
2019-05-19T17:13:20.075Z,19.20
2019-05-19T17:18:25.521Z,19.10
2019-05-19T17:20:54.999Z,19.00
2019-05-19T17:23:24.128Z,18.90
2019-05-19T17:25:53.478Z,18.70
2019-05-19T17:28:24.120Z,18.70
2019-05-19T17:31:08.792Z,18.70
2019-05-19T17:33:37.909Z,18.70
2019-05-19T17:36:07.120Z,18.60
2019-05-19T17:38:36.164Z,18.50
2019-05-19T17:41:06.480Z,18.40
2019-05-19T17:43:35.851Z,18.40
2019-05-19T17:46:04.964Z,18.20
2019-05-19T17:48:34.032Z,18.10
2019-05-19T17:51:04.074Z,18.10
2019-05-19T17:53:33.833Z,18.10
2019-05-19T17:56:03.765Z,18.00
2019-05-19T17:58:32.969Z,17.80
2019-05-19T18:01:02.042Z,17.70
2019-05-19T18:03:31.208Z,17.60
2019-05-19T18:06:00.583Z,17.50
2019-05-19T18:08:31.513Z,17.60
2019-05-19T18:11:00.577Z,17.50
2019-05-19T18:13:29.949Z,17.50
2019-05-19T18:15:59.096Z,17.50
2019-05-19T18:18:28.417Z,17.50
2019-05-19T18:20:57.791Z,17.40
2019-05-19T18:23:27.125Z,17.40
2019-05-19T18:25:56.331Z,17.50
2019-05-19T18:28:25.445Z,17.40
2019-05-19T18:30:54.863Z,17.40
2019-05-19T18:33:23.956Z,17.30
2019-05-19T18:35:53.584Z,17.20
2019-05-19T18:38:22.925Z,17.20
2019-05-19T18:40:52.013Z,17.20
2019-05-19T18:43:21.316Z,17.10
2019-05-19T18:45:50.392Z,17.20
2019-05-19T18:48:23.073Z,17.10
2019-05-19T18:50:51.040Z,17.10
2019-05-19T18:53:20.062Z,17.00
2019-05-19T18:55:49.144Z,17.00
2019-05-19T18:58:18.809Z,17.00
2019-05-19T19:00:48.179Z,17.00
2019-05-19T19:03:17.471Z,17.00
2019-05-19T19:05:46.885Z,17.00
2019-05-19T19:08:16.192Z,17.00
2019-05-19T19:10:45.525Z,17.00
2019-05-19T19:13:14.618Z,17.00
2019-05-19T19:15:43.697Z,17.00
2019-05-19T19:18:14.609Z,17.00
2019-05-19T19:20:43.972Z,16.90
2019-05-19T19:23:13.974Z,16.90
2019-05-19T19:25:43.317Z,16.90
2019-05-19T19:28:12.660Z,16.90
2019-05-19T19:30:42.297Z,16.90
2019-05-19T19:33:11.605Z,16.90
2019-05-19T19:35:40.706Z,16.90
2019-05-19T19:38:09.783Z,17.00
2019-05-19T19:40:38.920Z,16.90
2019-05-19T19:43:08.800Z,17.00
2019-05-19T19:45:38.968Z,17.00
2019-05-19T19:48:08.336Z,17.00
2019-05-19T19:50:38.146Z,16.90
2019-05-19T19:53:07.258Z,16.90
2019-05-19T19:55:36.360Z,16.90
2019-05-19T19:58:05.457Z,16.90
2019-05-19T20:00:39.486Z,16.90
2019-05-19T20:03:09.075Z,16.90
2019-05-19T20:05:38.524Z,16.90
2019-05-19T20:08:07.696Z,16.90
2019-05-19T20:10:37.503Z,16.80
2019-05-19T20:13:07.476Z,16.80
2019-05-19T20:15:37.874Z,16.90
2019-05-19T20:18:07.000Z,16.90
2019-05-19T20:20:36.060Z,16.90
2019-05-19T20:23:06.889Z,16.80
2019-05-19T20:25:38.417Z,16.90
2019-05-19T20:28:07.573Z,16.80
2019-05-19T20:30:37.100Z,16.80
2019-05-19T20:33:07.083Z,16.80
2019-05-19T20:35:36.332Z,16.80
2019-05-19T20:38:05.788Z,16.80
2019-05-19T20:40:35.149Z,16.80
2019-05-19T20:43:04.214Z,16.80
2019-05-19T20:45:35.901Z,16.80
2019-05-19T20:48:05.291Z,16.70
2019-05-19T20:50:34.452Z,16.70
2019-05-19T20:53:03.556Z,16.60
2019-05-19T20:55:32.889Z,16.70
2019-05-19T20:58:01.987Z,16.60
2019-05-19T21:00:31.157Z,16.60
2019-05-19T21:03:01.745Z,16.60
2019-05-19T21:05:30.847Z,16.70
2019-05-19T21:08:00.380Z,16.60
2019-05-19T21:10:29.457Z,16.50
2019-05-19T21:12:59.407Z,16.50
2019-05-19T21:15:28.514Z,16.40
2019-05-19T21:17:57.841Z,16.30
2019-05-19T21:20:26.904Z,16.30
2019-05-19T21:22:55.938Z,16.30
2019-05-19T21:25:25.287Z,16.30
2019-05-19T21:27:54.966Z,16.20
2019-05-19T21:30:24.064Z,16.10
2019-05-19T21:32:53.246Z,16.10
2019-05-19T21:35:22.616Z,16.00
2019-05-19T21:37:51.648Z,15.80
2019-05-19T21:40:20.736Z,15.70
2019-05-19T21:42:49.786Z,15.60
2019-05-19T21:45:18.864Z,15.60
2019-05-19T21:47:48.760Z,15.50
2019-05-19T21:50:18.256Z,15.40
2019-05-19T21:52:47.581Z,15.20
2019-05-19T21:55:16.673Z,15.30
2019-05-19T21:57:46.263Z,15.30
2019-05-19T22:00:15.704Z,15.20
2019-05-19T22:02:44.881Z,15.10
2019-05-19T22:05:14.801Z,15.00
2019-05-19T22:08:08.976Z,15.10
2019-05-19T22:10:39.405Z,15.20
2019-05-19T22:13:09.598Z,15.10
2019-05-19T22:15:39.131Z,15.10
2019-05-19T22:18:08.501Z,15.00
2019-05-19T22:20:39.525Z,14.90
2019-05-19T22:23:08.649Z,14.90
2019-05-19T22:25:37.698Z,14.90
2019-05-19T22:28:07.116Z,14.80
2019-05-19T22:30:36.466Z,14.70
2019-05-19T22:33:09.329Z,14.60
2019-05-19T22:35:38.711Z,14.60
2019-05-19T22:38:09.594Z,14.60
2019-05-19T22:40:38.912Z,14.50
2019-05-19T22:43:07.983Z,14.40
2019-05-19T22:45:37.099Z,14.20
2019-05-19T22:48:06.224Z,14.20
2019-05-19T22:53:10.676Z,14.10
2019-05-19T22:55:40.317Z,14.10
2019-05-19T22:58:09.752Z,14.00
2019-05-19T23:00:38.873Z,14.00
2019-05-19T23:03:09.920Z,13.90
2019-05-19T23:05:39.565Z,13.80
2019-05-19T23:08:09.440Z,13.90
2019-05-19T23:10:38.793Z,14.00
2019-05-19T23:13:09.883Z,14.10
2019-05-19T23:15:39.016Z,14.00
2019-05-19T23:18:08.309Z,13.90
2019-05-19T23:20:37.404Z,13.90
2019-05-19T23:23:06.473Z,13.80
2019-05-19T23:25:35.736Z,13.80
2019-05-19T23:28:04.821Z,13.90
2019-05-19T23:30:33.876Z,14.00
2019-05-19T23:33:03.252Z,14.00
2019-05-19T23:35:32.309Z,13.90
2019-05-19T23:38:01.892Z,13.80
2019-05-19T23:40:30.940Z,13.60
2019-05-19T23:43:00.614Z,13.60
2019-05-19T23:45:29.900Z,13.50
2019-05-19T23:47:59.189Z,13.40
2019-05-19T23:50:28.259Z,13.40
2019-05-19T23:52:57.477Z,13.30
2019-05-19T23:55:26.560Z,13.40
2019-05-19T23:57:55.629Z,13.40
